Time;durP1;ratioP1;P1;durP2;ratioP2;P2;SDS_P1;SDS_P2;PMS_P1;PMS_P2;Temp;Humidity;BMP_temperature;BMP_pressure;BME280_temperature;BME280_humidity;BME280_pressure;Samples;Min_cycle;Max_cycle;Signal;HPM_P1;HPM_P2
2023/10/15 00:00:51;;;;;;;12.38;2.60;;;10.20;99.90;;;;;;5074650;28;20139;-86
2023/10/15 00:03:17;;;;;;;8.07;1.63;;;10.30;99.90;;;;;;5056658;28;20036;-93
2023/10/15 00:05:43;;;;;;;6.72;0.93;;;10.30;99.90;;;;;;5056540;28;20135;-91
2023/10/15 00:08:09;;;;;;;7.15;1.05;;;10.30;99.90;;;;;;5056224;28;20049;-89
2023/10/15 00:10:36;;;;;;;7.63;1.35;;;10.40;99.90;;;;;;5055953;28;20507;-93
2023/10/15 00:13:04;;;;;;;4.95;0.93;;;10.40;99.90;;;;;;5056714;28;20048;-91
2023/10/15 00:15:30;;;;;;;6.97;0.90;;;10.40;99.90;;;;;;5055899;28;20059;-92
2023/10/15 00:18:01;;;;;;;7.70;1.17;;;10.40;99.90;;;;;;5055742;28;20123;-89
2023/10/15 00:20:31;;;;;;;6.72;1.02;;;10.40;99.90;;;;;;5055569;28;20407;-92
2023/10/15 00:23:04;;;;;;;5.57;1.70;;;10.30;99.90;;;;;;5055771;28;20136;-92
2023/10/15 00:25:36;;;;;;;8.10;2.92;;;10.30;99.90;;;;;;5055959;28;20123;-91
2023/10/15 00:28:09;;;;;;;8.25;1.98;;;10.30;99.90;;;;;;5056579;28;20119;-92
2023/10/15 00:30:37;;;;;;;10.65;1.45;;;10.30;99.90;;;;;;5057359;28;20431;-95
2023/10/15 00:33:03;;;;;;;9.40;1.38;;;10.30;99.90;;;;;;5057654;28;20055;-89
2023/10/15 00:35:35;;;;;;;8.98;1.55;;;10.40;99.90;;;;;;5060050;28;20044;-92
2023/10/15 00:38:11;;;;;;;13.80;1.95;;;10.40;99.90;;;;;;5059871;28;20446;-83
2023/10/15 00:40:37;;;;;;;13.18;1.60;;;10.40;99.90;;;;;;5059595;28;20051;-87
2023/10/15 00:43:04;;;;;;;13.38;1.30;;;10.40;99.90;;;;;;5059351;28;20049;-89
2023/10/15 00:45:35;;;;;;;18.17;2.45;;;10.40;99.90;;;;;;5059235;28;20408;-88
2023/10/15 00:48:07;;;;;;;10.55;1.05;;;10.30;99.90;;;;;;5059170;28;20132;-90
2023/10/15 00:50:42;;;;;;;15.55;1.65;;;10.30;99.90;;;;;;5076879;28;20480;-93
2023/10/15 00:53:22;;;;;;;6.97;1.50;;;10.30;99.90;;;;;;5059444;28;20087;-92
2023/10/15 00:56:00;;;;;;;14.05;2.38;;;10.30;99.90;;;;;;5059524;28;20516;-90
2023/10/15 01:01:20;;;;;;;12.23;1.10;;;10.30;99.90;;;;;;5076940;28;20054;-92
2023/10/15 01:03:57;;;;;;;12.50;1.20;;;10.30;99.90;;;;;;5042677;28;20044;-89
2023/10/15 01:06:35;;;;;;;16.23;1.60;;;10.20;99.90;;;;;;5058589;28;20132;-87
2023/10/15 01:09:09;;;;;;;8.32;1.25;;;10.20;99.90;;;;;;5059094;28;20054;-91
2023/10/15 01:11:50;;;;;;;8.68;0.70;;;10.10;99.90;;;;;;5077300;28;20048;-90
2023/10/15 01:14:25;;;;;;;14.25;1.10;;;10.00;99.90;;;;;;5059492;28;20048;-93
2023/10/15 01:16:51;;;;;;;2.60;0.57;;;10.00;99.90;;;;;;5058825;28;20454;-91
2023/10/15 01:19:18;;;;;;;5.57;0.70;;;9.80;99.90;;;;;;5058812;28;20055;-93
2023/10/15 01:21:57;;;;;;;6.07;0.90;;;9.70;99.90;;;;;;5058586;28;20115;-88
2023/10/15 01:24:33;;;;;;;8.38;0.50;;;9.50;99.90;;;;;;5058630;28;20465;-89
2023/10/15 01:27:11;;;;;;;4.90;0.43;;;9.50;99.90;;;;;;5058899;28;20056;-87
2023/10/15 01:29:42;;;;;;;1.98;0.32;;;9.50;99.90;;;;;;5058472;28;20123;-91
2023/10/15 01:32:14;;;;;;;1.83;0.20;;;9.50;99.90;;;;;;5058301;28;20091;-91
2023/10/15 01:34:44;;;;;;;1.17;0.30;;;9.40;99.90;;;;;;5058331;28;20053;-93
2023/10/15 01:37:28;;;;;;;0.85;0.20;;;9.40;99.90;;;;;;5058637;28;20542;-93
2023/10/15 01:40:24;;;;;;;2.65;0.38;;;9.40;99.90;;;;;;5058369;28;20040;-90
2023/10/15 01:42:53;;;;;;;4.40;0.65;;;9.40;99.90;;;;;;5058088;28;20059;-91
2023/10/15 01:45:31;;;;;;;3.35;0.30;;;9.30;99.90;;;;;;5057519;28;20495;-91
2023/10/15 01:48:05;;;;;;;2.88;0.50;;;9.30;99.90;;;;;;5058704;28;20503;-93
2023/10/15 01:50:52;;;;;;;2.92;0.43;;;9.20;99.90;;;;;;5058398;28;20119;-92
2023/10/15 01:53:23;;;;;;;5.05;1.77;;;9.30;99.90;;;;;;5058011;28;20056;-92
2023/10/15 01:55:59;;;;;;;3.28;0.40;;;9.30;99.90;;;;;;5058565;28;20080;-93
2023/10/15 01:58:30;;;;;;;4.35;1.33;;;9.40;99.90;;;;;;5058522;28;20088;-87
2023/10/15 02:01:04;;;;;;;8.90;0.85;;;9.40;99.90;;;;;;5058151;28;20045;-92
2023/10/15 02:03:31;;;;;;;6.28;0.90;;;9.50;99.90;;;;;;5058395;28;20056;-89
2023/10/15 02:06:05;;;;;;;4.28;0.50;;;9.60;99.90;;;;;;5058537;28;20112;-87
2023/10/15 02:08:30;;;;;;;5.57;0.77;;;9.70;99.90;;;;;;5058385;28;20040;-92
2023/10/15 02:10:56;;;;;;;3.72;0.30;;;9.80;99.90;;;;;;5057964;28;20476;-85
2023/10/15 02:13:22;;;;;;;5.72;0.70;;;9.80;99.90;;;;;;5075539;28;20049;-91
2023/10/15 02:15:55;;;;;;;4.47;0.43;;;9.90;99.90;;;;;;5057490;28;20045;-87
2023/10/15 02:18:21;;;;;;;4.05;0.55;;;9.90;99.90;;;;;;5057991;28;20044;-92
2023/10/15 02:23:16;;;;;;;6.00;0.55;;;9.90;99.90;;;;;;5057743;28;20086;-91
2023/10/15 02:25:46;;;;;;;4.68;0.93;;;10.00;99.90;;;;;;5058131;23;20053;-90
2023/10/15 02:28:32;;;;;;;3.75;0.60;;;10.00;99.90;;;;;;5054934;28;20406;-92
2023/10/15 02:31:03;;;;;;;6.53;0.68;;;10.00;99.90;;;;;;5054703;28;20416;-90
2023/10/15 02:33:31;;;;;;;3.60;0.93;;;10.00;99.90;;;;;;5054444;28;20079;-84
2023/10/15 02:35:59;;;;;;;3.70;0.47;;;9.90;99.90;;;;;;5054157;28;20041;-92
2023/10/15 02:38:34;;;;;;;7.05;0.82;;;9.90;99.90;;;;;;5054236;28;20053;-91
2023/10/15 02:43:29;;;;;;;7.38;1.02;;;9.80;99.90;;;;;;5054232;28;20146;-89
2023/10/15 02:46:00;;;;;;;5.35;0.75;;;9.80;99.90;;;;;;5054180;28;20507;-85
2023/10/15 02:48:26;;;;;;;8.90;1.13;;;9.80;99.90;;;;;;5053820;28;20053;-85
2023/10/15 02:51:08;;;;;;;4.68;0.75;;;9.70;99.90;;;;;;5053226;28;20045;-86
2023/10/15 02:53:36;;;;;;;6.88;1.20;;;9.40;99.90;;;;;;5053388;28;20057;-86
2023/10/15 02:56:11;;;;;;;14.88;1.85;;;9.00;99.90;;;;;;5052362;28;20499;-85
2023/10/15 02:58:38;;;;;;;10.85;1.75;;;8.80;99.90;;;;;;5053587;28;20059;-86
2023/10/15 03:01:20;;;;;;;14.93;1.90;;;8.60;99.90;;;;;;5053054;28;20045;-86
2023/10/15 03:03:49;;;;;;;8.93;1.00;;;8.50;99.90;;;;;;5053218;28;20132;-86
2023/10/15 03:06:24;;;;;;;8.75;0.90;;;8.40;99.90;;;;;;5052978;28;20037;-86
2023/10/15 03:08:51;;;;;;;9.82;1.55;;;8.40;99.90;;;;;;5053401;28;20124;-87
2023/10/15 03:11:20;;;;;;;7.15;1.40;;;8.30;99.90;;;;;;5053213;28;20056;-85
2023/10/15 03:13:55;;;;;;;18.27;1.45;;;8.30;99.90;;;;;;5053117;28;20045;-85
2023/10/15 03:16:23;;;;;;;14.15;1.30;;;8.20;99.90;;;;;;5052768;28;20542;-85
2023/10/15 03:18:49;;;;;;;4.82;0.70;;;8.20;99.90;;;;;;5053944;28;20066;-85
2023/10/15 03:21:20;;;;;;;12.27;0.90;;;8.20;99.90;;;;;;5052790;28;20052;-85
2023/10/15 03:23:49;;;;;;;8.68;1.00;;;8.20;99.90;;;;;;5052817;28;20045;-85
2023/10/15 03:26:18;;;;;;;4.07;0.73;;;8.20;99.90;;;;;;5052441;28;20059;-85
2023/10/15 03:28:51;;;;;;;6.45;1.42;;;8.20;99.90;;;;;;5053000;28;20118;-86
2023/10/15 03:31:23;;;;;;;10.33;1.07;;;8.20;99.90;;;;;;5052778;28;20053;-85
2023/10/15 03:36:53;;;;;;;4.97;1.00;;;8.20;99.90;;;;;;5054371;28;20516;-85
2023/10/15 03:39:45;;;;;;;5.63;0.70;;;8.20;99.90;;;;;;5052901;28;20048;-86
2023/10/15 03:44:44;;;;;;;6.15;0.93;;;8.20;99.90;;;;;;5052725;28;20052;-84
2023/10/15 03:47:11;;;;;;;10.95;1.00;;;8.30;99.90;;;;;;5052880;28;20053;-85
2023/10/15 03:49:37;;;;;;;4.45;0.38;;;8.30;99.90;;;;;;5052306;28;20056;-85
2023/10/15 03:52:14;;;;;;;12.50;1.88;;;8.50;99.90;;;;;;5052482;28;20048;-85
2023/10/15 03:54:42;;;;;;;10.23;0.90;;;8.60;99.90;;;;;;5052300;28;20094;-84
2023/10/15 03:57:08;;;;;;;8.85;2.20;;;8.80;99.90;;;;;;5052287;28;20081;-85
2023/10/15 03:59:44;;;;;;;5.88;0.73;;;8.90;99.90;;;;;;5052460;28;20084;-85
2023/10/15 04:02:40;;;;;;;11.05;1.27;;;9.00;99.90;;;;;;5052037;28;20044;-87
2023/10/15 04:05:08;;;;;;;19.83;2.47;;;9.10;99.90;;;;;;5052417;28;20052;-84
2023/10/15 04:07:40;;;;;;;9.80;1.10;;;9.20;99.90;;;;;;5055079;28;20048;-83
2023/10/15 04:10:08;;;;;;;9.23;1.10;;;9.20;99.90;;;;;;5056647;28;20090;-84
2023/10/15 04:12:35;;;;;;;5.53;1.65;;;9.30;99.90;;;;;;5056536;28;20507;-85
2023/10/15 04:15:03;;;;;;;6.93;1.35;;;9.30;99.90;;;;;;5056639;28;20519;-86
2023/10/15 04:17:29;;;;;;;4.03;0.93;;;9.30;99.90;;;;;;5056298;28;20051;-87
2023/10/15 04:19:55;;;;;;;9.60;1.70;;;9.30;99.90;;;;;;5056686;28;20128;-85
2023/10/15 04:22:21;;;;;;;31.00;1.52;;;9.40;99.90;;;;;;5057826;28;20045;-87
2023/10/15 04:24:50;;;;;;;9.18;2.13;;;9.40;99.90;;;;;;5056862;28;20412;-90
2023/10/15 04:27:17;;;;;;;9.20;1.30;;;9.30;99.90;;;;;;5056140;28;20210;-88
2023/10/15 04:29:55;;;;;;;8.20;1.77;;;9.30;99.90;;;;;;5056517;28;20086;-90
2023/10/15 04:34:53;;;;;;;6.00;0.95;;;9.30;99.90;;;;;;5056280;28;20052;-88
2023/10/15 04:37:20;;;;;;;4.68;0.73;;;9.20;99.90;;;;;;5056125;28;20041;-90
2023/10/15 04:39:54;;;;;;;8.27;1.08;;;9.20;99.90;;;;;;5056249;28;20044;-90
2023/10/15 04:42:21;;;;;;;6.35;0.63;;;9.20;99.90;;;;;;5056084;28;20048;-90
2023/10/15 04:44:50;;;;;;;4.72;0.75;;;9.20;99.90;;;;;;5055952;28;20440;-90
2023/10/15 04:47:27;;;;;;;3.58;0.95;;;9.20;99.90;;;;;;5056188;28;20506;-88
2023/10/15 04:49:57;;;;;;;2.05;0.45;;;9.20;99.90;;;;;;5055760;28;20123;-91
2023/10/15 04:52:24;;;;;;;4.35;0.85;;;9.30;99.90;;;;;;5055684;28;20129;-87
2023/10/15 04:54:55;;;;;;;2.63;0.93;;;9.30;99.90;;;;;;5056196;28;20041;-93
2023/10/15 04:57:21;;;;;;;9.52;0.90;;;9.20;99.90;;;;;;5055900;28;20048;-89
2023/10/15 04:59:47;;;;;;;5.07;1.10;;;9.20;99.90;;;;;;5055895;28;20413;-92
2023/10/15 05:02:12;;;;;;;5.70;0.95;;;9.20;99.90;;;;;;5055578;28;20044;-93
2023/10/15 05:04:38;;;;;;;8.43;1.33;;;9.20;99.90;;;;;;5055673;28;20558;-90
2023/10/15 05:07:04;;;;;;;4.97;1.00;;;9.20;99.90;;;;;;5055672;28;20045;-93
2023/10/15 05:09:31;;;;;;;5.00;0.80;;;9.30;99.90;;;;;;5057129;28;20041;-90
2023/10/15 05:11:58;;;;;;;6.68;1.40;;;9.30;99.90;;;;;;5055957;28;20183;-90
2023/10/15 05:14:23;;;;;;;6.40;0.77;;;9.30;99.90;;;;;;5055630;28;20522;-91
2023/10/15 05:16:49;;;;;;;43.35;8.18;;;9.40;99.90;;;;;;5055557;28;20052;-83
2023/10/15 05:19:19;;;;;;;17.25;2.97;;;9.30;99.90;;;;;;5055475;28;20039;-83
2023/10/15 05:21:46;;;;;;;14.07;1.20;;;9.00;99.90;;;;;;5056303;28;20057;-85
2023/10/15 05:24:21;;;;;;;9.73;1.10;;;8.90;99.90;;;;;;5054663;28;20508;-86
2023/10/15 05:26:48;;;;;;;10.13;1.17;;;8.80;99.90;;;;;;5054977;28;20053;-85
2023/10/15 05:29:17;;;;;;;6.22;0.85;;;8.70;99.90;;;;;;5054762;28;20043;-84
2023/10/15 05:31:43;;;;;;;4.70;0.68;;;8.60;99.90;;;;;;5055132;28;20049;-84
2023/10/15 05:34:09;;;;;;;4.65;0.90;;;8.50;99.90;;;;;;5054840;28;20045;-87
2023/10/15 05:36:38;;;;;;;6.60;0.77;;;8.50;99.90;;;;;;5055069;28;20053;-85
2023/10/15 05:39:04;;;;;;;5.70;0.63;;;8.50;99.90;;;;;;5055039;28;20041;-85
2023/10/15 05:41:32;;;;;;;6.38;0.63;;;8.50;99.90;;;;;;5054460;28;20037;-85
2023/10/15 05:43:58;;;;;;;11.50;1.67;;;8.40;99.90;;;;;;5054575;28;20049;-85
2023/10/15 05:46:25;;;;;;;13.38;2.00;;;8.40;99.90;;;;;;5054817;28;20055;-84
2023/10/15 05:48:51;;;;;;;12.82;2.45;;;8.40;99.90;;;;;;5054863;28;20048;-86
2023/10/15 05:51:16;;;;;;;11.20;1.42;;;8.60;99.90;;;;;;5055852;28;20045;-85
2023/10/15 05:53:42;;;;;;;5.97;0.93;;;8.60;99.90;;;;;;5054757;28;20480;-83
2023/10/15 05:56:08;;;;;;;6.97;0.65;;;8.60;99.90;;;;;;5054324;28;20055;-85
2023/10/15 05:58:34;;;;;;;4.05;0.47;;;8.60;99.90;;;;;;5054537;28;20052;-89
2023/10/15 06:00:59;;;;;;;9.48;0.90;;;8.50;99.90;;;;;;5053962;28;20037;-85
2023/10/15 06:03:25;;;;;;;8.05;1.63;;;8.50;99.90;;;;;;5054355;28;20037;-84
2023/10/15 06:05:56;;;;;;;6.75;0.80;;;8.50;99.90;;;;;;5053056;28;20501;-85
2023/10/15 06:08:22;;;;;;;11.07;1.08;;;8.50;99.90;;;;;;5055154;28;20083;-85
2023/10/15 06:10:47;;;;;;;3.58;0.63;;;8.50;99.90;;;;;;5053985;28;20126;-84
2023/10/15 06:13:13;;;;;;;6.97;0.60;;;8.60;99.90;;;;;;5054430;28;20044;-84
2023/10/15 06:15:39;;;;;;;4.05;0.40;;;8.50;99.90;;;;;;5054022;28;20045;-84
2023/10/15 06:18:04;;;;;;;6.70;0.75;;;8.60;99.90;;;;;;5053903;28;20508;-86
2023/10/15 06:20:30;;;;;;;3.65;0.82;;;8.60;99.90;;;;;;5053943;28;20056;-84
2023/10/15 06:22:56;;;;;;;4.90;0.65;;;8.60;99.90;;;;;;5053764;28;20129;-85
2023/10/15 06:25:23;;;;;;;4.60;1.10;;;8.70;99.90;;;;;;5054863;28;20049;-87
2023/10/15 06:27:50;;;;;;;14.70;1.95;;;8.70;99.90;;;;;;5053539;28;20088;-85
2023/10/15 06:30:16;;;;;;;4.85;0.68;;;8.80;99.90;;;;;;5053311;28;20086;-88
2023/10/15 06:32:49;;;;;;;12.40;1.73;;;8.80;99.90;;;;;;5053570;28;20049;-86
2023/10/15 06:35:19;;;;;;;4.97;0.60;;;8.70;99.90;;;;;;5053444;28;20052;-83
2023/10/15 06:37:48;;;;;;;7.45;1.33;;;8.70;99.90;;;;;;5054128;28;20051;-83
2023/10/15 06:40:17;;;;;;;8.05;0.93;;;8.70;99.90;;;;;;5053756;28;20041;-87
2023/10/15 06:42:43;;;;;;;3.85;0.80;;;8.60;99.90;;;;;;5053351;28;20041;-87
2023/10/15 06:45:10;;;;;;;2.97;0.98;;;8.60;99.90;;;;;;5054442;28;20056;-85
2023/10/15 06:47:37;;;;;;;5.35;1.00;;;8.50;99.90;;;;;;5053380;28;20041;-85
2023/10/15 06:50:06;;;;;;;10.65;2.45;;;8.50;99.90;;;;;;5053233;28;20041;-84
2023/10/15 06:52:36;;;;;;;5.47;0.98;;;8.50;99.90;;;;;;5053472;28;20127;-83
2023/10/15 06:55:04;;;;;;;4.47;0.93;;;8.60;99.90;;;;;;5054191;28;20048;-84
2023/10/15 06:57:29;;;;;;;4.43;0.80;;;8.50;99.90;;;;;;5053052;28;20052;-88
2023/10/15 06:59:55;;;;;;;5.20;0.90;;;8.50;99.90;;;;;;5053024;28;20045;-84
2023/10/15 07:02:21;;;;;;;6.80;0.90;;;8.60;99.90;;;;;;5052834;28;20071;-84
2023/10/15 07:04:46;;;;;;;6.85;0.77;;;8.50;99.90;;;;;;5052878;28;20195;-83
2023/10/15 07:07:13;;;;;;;5.82;1.52;;;8.60;99.90;;;;;;5053093;28;20062;-84
2023/10/15 07:09:40;;;;;;;9.68;1.13;;;8.50;99.90;;;;;;5052808;28;20400;-84
2023/10/15 07:12:06;;;;;;;13.40;1.50;;;8.60;99.90;;;;;;5052729;28;20083;-84
2023/10/15 07:14:32;;;;;;;7.50;1.10;;;8.60;99.90;;;;;;5052888;28;20080;-86
2023/10/15 07:16:57;;;;;;;9.57;1.10;;;8.70;99.90;;;;;;5052910;28;20480;-85
2023/10/15 07:19:25;;;;;;;10.77;1.05;;;8.70;99.90;;;;;;5052804;28;20397;-83
2023/10/15 07:21:52;;;;;;;7.60;1.30;;;8.70;99.90;;;;;;5052404;28;20052;-85
2023/10/15 07:24:20;;;;;;;8.57;0.88;;;8.80;99.90;;;;;;5052340;28;20045;-85
2023/10/15 07:26:47;;;;;;;8.50;1.42;;;8.80;99.90;;;;;;5053993;28;20057;-85
2023/10/15 07:29:13;;;;;;;10.05;1.52;;;8.80;99.90;;;;;;5052545;28;20045;-84
2023/10/15 07:31:39;;;;;;;8.80;1.35;;;8.90;99.90;;;;;;5052663;28;20136;-86
2023/10/15 07:34:05;;;;;;;7.45;0.80;;;8.90;99.90;;;;;;5052658;28;20052;-85
2023/10/15 07:36:32;;;;;;;8.80;1.52;;;9.00;99.90;;;;;;5053728;28;20048;-85
2023/10/15 07:38:58;;;;;;;5.68;1.27;;;9.10;99.90;;;;;;5052430;28;20039;-87
2023/10/15 07:41:23;;;;;;;8.60;0.93;;;9.10;99.90;;;;;;5052094;28;20056;-88
2023/10/15 07:43:49;;;;;;;8.60;1.10;;;9.10;99.90;;;;;;5052249;28;20080;-93
2023/10/15 07:46:14;;;;;;;3.78;0.73;;;9.20;99.90;;;;;;5052491;28;20076;-85
2023/10/15 07:48:43;;;;;;;10.38;2.28;;;9.30;99.90;;;;;;5045793;28;20045;-86
2023/10/15 07:51:10;;;;;;;13.13;2.80;;;9.30;99.90;;;;;;5037584;28;20042;-85
2023/10/15 07:53:35;;;;;;;12.02;2.10;;;9.40;99.90;;;;;;5032331;28;20103;-92
2023/10/15 07:56:01;;;;;;;12.25;2.45;;;9.50;99.90;;;;;;5032012;28;20037;-90
2023/10/15 07:58:26;;;;;;;8.90;2.13;;;9.60;99.90;;;;;;5032259;28;20053;-86
2023/10/15 08:00:53;;;;;;;7.25;0.95;;;9.60;99.90;;;;;;5032291;28;20098;-87
2023/10/15 08:03:19;;;;;;;10.10;1.20;;;9.70;99.90;;;;;;5032465;28;20076;-88
2023/10/15 08:05:46;;;;;;;11.07;1.40;;;9.60;99.90;;;;;;5032266;28;20482;-88
2023/10/15 08:08:12;;;;;;;9.05;1.60;;;9.60;99.90;;;;;;5032263;28;20046;-88
2023/10/15 08:10:37;;;;;;;7.75;0.77;;;9.60;99.90;;;;;;5032541;28;20042;-87
2023/10/15 08:13:05;;;;;;;4.65;0.90;;;9.70;99.90;;;;;;5032352;28;20481;-88
2023/10/15 08:15:33;;;;;;;10.55;2.05;;;9.70;99.90;;;;;;5031722;28;20452;-85
2023/10/15 08:18:01;;;;;;;7.63;1.17;;;9.70;99.90;;;;;;5031745;28;20404;-88
2023/10/15 08:20:28;;;;;;;7.97;2.50;;;9.80;99.90;;;;;;5032248;28;20061;-87
2023/10/15 08:22:54;;;;;;;9.02;1.98;;;9.80;99.90;;;;;;5032025;28;20115;-91
2023/10/15 08:25:23;;;;;;;14.32;1.88;;;9.80;99.90;;;;;;5031825;28;20485;-90
2023/10/15 08:27:49;;;;;;;15.13;1.45;;;9.80;99.90;;;;;;5032308;28;20124;-91
2023/10/15 08:30:17;;;;;;;12.02;0.95;;;9.70;99.90;;;;;;5032334;28;20433;-91
2023/10/15 08:32:44;;;;;;;16.42;1.42;;;9.50;99.90;;;;;;5032691;28;20121;-91
2023/10/15 08:35:13;;;;;;;8.07;1.88;;;9.50;99.90;;;;;;5032371;28;20046;-86
2023/10/15 08:37:43;;;;;;;10.80;1.33;;;9.30;99.90;;;;;;5032339;28;20049;-90
2023/10/15 08:40:15;;;;;;;12.98;2.85;;;9.20;99.90;;;;;;5033033;28;20049;-91
2023/10/15 08:43:09;;;;;;;6.88;1.20;;;9.30;99.90;;;;;;5031868;28;20068;-90
2023/10/15 08:45:36;;;;;;;9.20;1.52;;;9.30;99.90;;;;;;5031904;28;20045;-91
2023/10/15 08:48:03;;;;;;;5.90;0.60;;;9.40;99.90;;;;;;5031725;28;20077;-85
2023/10/15 08:50:31;;;;;;;5.43;1.10;;;9.50;99.90;;;;;;5032658;28;20520;-93
2023/10/15 08:52:59;;;;;;;6.47;0.70;;;9.50;99.90;;;;;;5032214;28;20128;-86
2023/10/15 08:55:25;;;;;;;8.25;1.25;;;9.40;99.90;;;;;;5036864;28;20124;-92
2023/10/15 08:57:54;;;;;;;7.13;1.25;;;9.40;99.90;;;;;;5036141;28;20092;-92
2023/10/15 09:00:26;;;;;;;6.88;0.85;;;9.30;99.90;;;;;;5036997;28;20037;-90
2023/10/15 09:02:56;;;;;;;7.72;1.17;;;9.40;99.90;;;;;;5035428;28;20475;-91
2023/10/15 09:05:25;;;;;;;3.58;0.75;;;9.30;99.90;;;;;;5037026;28;20042;-91
2023/10/15 09:07:54;;;;;;;5.85;0.60;;;9.40;99.90;;;;;;5035560;28;20092;-91
2023/10/15 09:10:20;;;;;;;5.57;0.80;;;9.50;99.90;;;;;;5035457;28;20077;-91
2023/10/15 09:12:47;;;;;;;6.15;1.55;;;9.50;99.90;;;;;;5035756;28;20136;-91
2023/10/15 09:15:18;;;;;;;4.75;0.80;;;9.60;99.90;;;;;;5036535;28;20049;-90
2023/10/15 09:17:58;;;;;;;9.35;0.45;;;9.70;99.90;;;;;;5035442;28;20041;-90
2023/10/15 09:20:27;;;;;;;5.90;0.98;;;9.90;99.90;;;;;;5036462;28;20045;-90
2023/10/15 09:22:57;;;;;;;3.92;0.60;;;10.00;99.90;;;;;;5035926;28;20053;-90
2023/10/15 09:25:28;;;;;;;5.35;0.60;;;10.10;99.90;;;;;;5034867;28;20501;-93
2023/10/15 09:27:54;;;;;;;7.10;1.15;;;10.20;99.90;;;;;;5037079;28;20049;-87
2023/10/15 09:30:25;;;;;;;4.95;0.65;;;10.30;99.90;;;;;;5034886;28;20052;-91
2023/10/15 09:32:51;;;;;;;8.05;2.55;;;10.40;99.90;;;;;;5035084;28;20095;-84
2023/10/15 09:35:17;;;;;;;9.02;1.40;;;10.50;99.90;;;;;;5036023;28;20041;-87
2023/10/15 09:37:44;;;;;;;8.57;1.35;;;10.60;99.90;;;;;;5035324;28;20049;-88
2023/10/15 09:40:18;;;;;;;11.55;1.88;;;10.60;99.90;;;;;;5035142;28;20050;-89
2023/10/15 09:42:45;;;;;;;8.48;1.00;;;10.50;99.90;;;;;;5035415;28;20542;-88
2023/10/15 09:45:15;;;;;;;5.07;0.50;;;10.20;99.90;;;;;;5035041;28;20116;-88
2023/10/15 09:47:48;;;;;;;6.20;0.70;;;10.10;99.90;;;;;;5036365;28;20049;-90
2023/10/15 09:50:16;;;;;;;7.10;0.80;;;10.00;99.90;;;;;;5035934;28;20041;-88
2023/10/15 09:52:46;;;;;;;8.75;0.80;;;9.80;99.90;;;;;;5034317;28;20041;-86
2023/10/15 09:55:13;;;;;;;6.80;0.93;;;9.90;99.90;;;;;;5034834;28;20083;-92
2023/10/15 09:57:39;;;;;;;9.02;1.27;;;9.90;99.90;;;;;;5034422;28;20378;-89
2023/10/15 10:00:19;;;;;;;7.00;0.63;;;10.10;99.90;;;;;;5035017;28;20485;-92
2023/10/15 10:02:54;;;;;;;7.38;1.40;;;10.10;99.90;;;;;;5038191;28;20054;-94
2023/10/15 10:05:44;;;;;;;9.93;0.90;;;10.10;99.90;;;;;;5037566;28;20064;-94
2023/10/15 10:09:06;;;;;;;9.95;0.90;;;10.00;99.90;;;;;;5035387;28;20037;-92
2023/10/15 10:12:05;;;;;;;11.07;1.48;;;10.10;99.90;;;;;;4994748;28;20061;-86
2023/10/15 10:14:37;;;;;;;8.10;0.70;;;10.50;99.90;;;;;;5033976;28;20057;-90
2023/10/15 10:17:04;;;;;;;8.20;0.80;;;10.60;99.90;;;;;;5034136;28;20481;-93
2023/10/15 10:19:31;;;;;;;7.30;0.70;;;10.50;99.90;;;;;;5035464;28;20072;-92
2023/10/15 10:21:58;;;;;;;2.78;0.57;;;10.40;99.90;;;;;;5033809;28;20116;-92
2023/10/15 10:24:42;;;;;;;7.88;1.10;;;10.40;99.90;;;;;;5033494;28;20124;-89
2023/10/15 10:27:16;;;;;;;14.52;1.25;;;10.30;99.90;;;;;;5035294;28;20103;-91
2023/10/15 10:30:14;;;;;;;3.53;1.02;;;10.40;99.90;;;;;;5033893;28;20049;-87
2023/10/15 10:32:41;;;;;;;5.45;0.63;;;10.30;99.90;;;;;;5033618;28;20052;-84
2023/10/15 10:35:22;;;;;;;8.35;0.60;;;10.50;99.90;;;;;;5033368;28;20107;-87
2023/10/15 10:38:10;;;;;;;6.75;0.50;;;10.60;99.90;;;;;;5033644;28;20081;-87
2023/10/15 10:40:52;;;;;;;8.60;0.70;;;10.80;99.90;;;;;;5033630;28;20136;-85
2023/10/15 10:43:28;;;;;;;9.02;1.20;;;11.00;99.90;;;;;;5033243;28;20060;-84
2023/10/15 10:45:56;;;;;;;5.28;3.05;;;11.10;99.90;;;;;;5034434;28;20053;-86
2023/10/15 10:48:23;;;;;;;8.50;1.52;;;11.30;99.90;;;;;;5033093;28;20043;-88
2023/10/15 10:51:18;;;;;;;6.97;1.13;;;11.40;99.90;;;;;;5033240;28;20056;-85
2023/10/15 10:53:56;;;;;;;9.93;1.55;;;11.50;99.90;;;;;;5033053;28;20103;-85
2023/10/15 10:56:24;;;;;;;6.28;1.20;;;11.70;99.90;;;;;;5032901;28;20485;-87
2023/10/15 10:58:54;;;;;;;5.20;1.13;;;11.80;99.90;;;;;;5033005;28;20060;-84
2023/10/15 11:01:21;;;;;;;4.18;0.90;;;11.80;99.90;;;;;;5032838;28;20088;-88
2023/10/15 11:03:52;;;;;;;6.53;1.30;;;11.80;99.90;;;;;;5034243;28;20046;-88
2023/10/15 11:06:18;;;;;;;7.03;1.13;;;11.80;99.90;;;;;;5032964;28;20077;-84
2023/10/15 11:08:52;;;;;;;5.38;0.90;;;11.70;99.90;;;;;;5032845;28;20088;-85
2023/10/15 11:11:19;;;;;;;7.25;0.95;;;11.60;99.90;;;;;;5032711;28;20073;-89
2023/10/15 11:13:47;;;;;;;6.25;0.82;;;11.50;99.90;;;;;;5034176;28;20072;-87
2023/10/15 11:16:13;;;;;;;7.28;1.42;;;11.50;99.90;;;;;;5032404;28;20124;-87
2023/10/15 11:18:39;;;;;;;6.20;1.30;;;11.50;99.90;;;;;;5032305;28;20132;-86
2023/10/15 11:21:07;;;;;;;6.25;1.08;;;11.60;99.90;;;;;;5033929;28;20125;-86
2023/10/15 11:23:33;;;;;;;14.32;1.70;;;11.60;99.90;;;;;;5032800;28;20555;-87
2023/10/15 11:25:59;;;;;;;5.28;1.25;;;11.60;99.90;;;;;;5032201;28;20077;-84
2023/10/15 11:28:25;;;;;;;6.85;0.90;;;11.60;99.90;;;;;;5032344;28;20088;-89
2023/10/15 11:30:51;;;;;;;9.77;1.00;;;11.60;99.90;;;;;;5032411;28;20045;-85
2023/10/15 11:33:17;;;;;;;9.40;1.10;;;11.60;99.90;;;;;;5032505;28;20045;-94
2023/10/15 11:35:48;;;;;;;3.97;0.75;;;11.60;99.90;;;;;;5033864;28;20556;-83
2023/10/15 11:38:14;;;;;;;5.50;0.70;;;11.50;99.90;;;;;;5032266;28;20049;-87
2023/10/15 11:40:40;;;;;;;16.70;1.70;;;11.50;99.90;;;;;;5032184;28;20385;-86
2023/10/15 11:43:19;;;;;;;6.90;1.10;;;11.50;99.90;;;;;;5032036;28;20045;-87
2023/10/15 11:45:49;;;;;;;9.55;1.13;;;11.40;99.90;;;;;;5032507;28;20107;-87
2023/10/15 11:48:21;;;;;;;5.07;1.00;;;11.50;99.90;;;;;;5032169;28;20049;-89
2023/10/15 11:50:48;;;;;;;5.70;0.77;;;11.50;99.90;;;;;;5032358;28;20080;-87
2023/10/15 11:53:20;;;;;;;3.90;1.17;;;11.60;99.90;;;;;;5032460;28;20045;-91
2023/10/15 11:55:47;;;;;;;7.28;1.00;;;11.70;99.90;;;;;;5032749;28;20063;-89
2023/10/15 11:58:19;;;;;;;5.68;0.77;;;11.70;99.90;;;;;;5031968;28;20523;-83
2023/10/15 12:00:48;;;;;;;7.10;0.52;;;11.80;99.90;;;;;;5032729;28;20053;-86
2023/10/15 12:03:16;;;;;;;7.70;0.93;;;11.60;99.90;;;;;;5032383;28;20057;-88
2023/10/15 12:05:42;;;;;;;7.63;1.00;;;11.70;99.90;;;;;;5032299;28;20115;-87
2023/10/15 12:08:12;;;;;;;7.40;0.88;;;11.80;99.90;;;;;;5031993;28;20096;-87
2023/10/15 12:10:42;;;;;;;8.77;0.80;;;12.00;99.90;;;;;;5031848;28;20058;-86
2023/10/15 12:13:09;;;;;;;4.05;0.50;;;12.00;99.90;;;;;;5033275;28;20084;-88
2023/10/15 12:15:34;;;;;;;5.40;1.08;;;12.10;99.90;;;;;;5033333;28;20045;-90
2023/10/15 12:18:02;;;;;;;6.80;1.55;;;11.90;99.90;;;;;;5032010;28;20049;-87
2023/10/15 12:20:28;;;;;;;10.43;1.27;;;11.80;99.90;;;;;;5031819;28;20088;-86
2023/10/15 12:22:54;;;;;;;8.70;1.55;;;11.90;99.90;;;;;;5031844;28;20053;-87
2023/10/15 12:25:21;;;;;;;7.60;1.38;;;12.00;99.90;;;;;;5031666;28;20095;-84
2023/10/15 12:27:47;;;;;;;21.52;3.25;;;12.00;99.90;;;;;;5031818;28;20493;-86
2023/10/15 12:30:23;;;;;;;8.70;1.50;;;12.00;99.90;;;;;;5036183;28;20057;-85
2023/10/15 12:32:50;;;;;;;10.13;1.15;;;11.90;99.90;;;;;;5036217;28;20049;-86
2023/10/15 12:35:19;;;;;;;4.80;0.40;;;12.00;99.90;;;;;;5037086;28;20400;-87
2023/10/15 12:37:45;;;;;;;7.20;1.42;;;11.80;99.90;;;;;;5036013;28;20050;-90
2023/10/15 12:40:12;;;;;;;7.50;0.93;;;11.70;99.90;;;;;;5035841;28;20068;-87
2023/10/15 12:42:39;;;;;;;8.05;1.05;;;11.50;99.90;;;;;;5035521;28;20052;-84
2023/10/15 12:45:10;;;;;;;9.27;0.77;;;11.50;99.90;;;;;;5035444;28;20046;-85
2023/10/15 12:47:37;;;;;;;5.38;0.60;;;11.50;99.90;;;;;;5036095;28;20099;-85
2023/10/15 12:50:04;;;;;;;4.00;0.70;;;11.40;99.90;;;;;;5035590;28;20136;-90
2023/10/15 12:52:31;;;;;;;4.40;0.63;;;11.30;99.90;;;;;;5052465;28;20041;-86
2023/10/15 12:54:58;;;;;;;4.28;0.75;;;11.30;99.90;;;;;;5055079;28;20048;-88
2023/10/15 12:57:24;;;;;;;8.05;0.50;;;11.40;99.90;;;;;;5055311;28;20106;-85
2023/10/15 12:59:50;;;;;;;8.32;0.90;;;11.60;99.90;;;;;;5056334;28;20032;-84
2023/10/15 13:02:17;;;;;;;7.93;0.88;;;11.70;99.90;;;;;;5056261;28;20465;-85
2023/10/15 13:04:43;;;;;;;7.80;0.68;;;11.80;99.90;;;;;;5055261;28;20055;-88
2023/10/15 13:07:10;;;;;;;7.60;0.75;;;11.80;99.90;;;;;;5054964;28;20077;-87
2023/10/15 13:12:02;;;;;;;11.40;0.90;;;11.90;99.90;;;;;;5216091;22;20062;-88
2023/10/15 13:14:28;;;;;;;10.23;1.05;;;12.00;99.90;;;;;;4998729;28;20497;-88
2023/10/15 13:16:54;;;;;;;6.68;1.40;;;12.00;99.90;;;;;;4999026;28;20053;-87
2023/10/15 13:19:20;;;;;;;9.27;1.45;;;12.10;99.90;;;;;;4998618;28;20486;-86
2023/10/15 13:21:46;;;;;;;9.38;2.38;;;12.10;99.90;;;;;;4998548;28;20056;-83